createdAt,value
2019-05-17T07:44:31.993Z,96.19
2019-05-17T07:45:31.940Z,96.56
2019-05-17T07:47:06.527Z,77.97
2019-05-17T07:48:06.464Z,75.16
2019-05-17T07:49:06.503Z,75.90
2019-05-17T07:50:06.480Z,74.85
2019-05-17T07:51:06.441Z,76.62
2019-05-17T07:52:06.442Z,76.15
2019-05-17T07:53:06.411Z,75.47
2019-05-17T07:54:06.409Z,76.56
2019-05-17T07:55:06.418Z,80.23
2019-05-17T07:56:06.381Z,78.19
2019-05-17T07:57:06.384Z,81.41
2019-05-17T07:58:06.403Z,76.53
2019-05-17T07:59:06.360Z,77.34
2019-05-17T08:00:06.339Z,79.07
2019-05-17T08:01:06.349Z,79.95
2019-05-17T08:02:06.319Z,76.79
2019-05-17T08:03:06.303Z,77.81
2019-05-17T08:04:06.307Z,79.16
2019-05-17T08:05:06.315Z,77.03
2019-05-17T08:06:06.327Z,75.37
2019-05-17T08:07:06.285Z,78.08
2019-05-17T08:08:06.284Z,75.63
2019-05-17T08:09:06.257Z,72.62
2019-05-17T08:10:06.247Z,73.39
2019-05-17T08:11:06.252Z,74.15
2019-05-17T08:12:06.239Z,74.35
2019-05-17T08:13:06.221Z,76.95
2019-05-17T08:14:06.187Z,76.45
2019-05-17T08:15:06.186Z,75.49
2019-05-17T08:16:06.187Z,72.69
2019-05-17T08:17:06.168Z,75.02
2019-05-17T08:18:06.197Z,74.58
2019-05-17T08:19:06.149Z,74.44
2019-05-17T08:20:06.161Z,71.94
2019-05-17T08:21:06.151Z,73.77
2019-05-17T08:22:06.114Z,71.50
2019-05-17T08:23:06.093Z,73.63
2019-05-17T08:24:06.118Z,71.84
2019-05-17T08:25:06.139Z,73.60
2019-05-17T08:26:06.105Z,69.13
2019-05-17T08:27:06.064Z,70.25
2019-05-17T08:28:06.059Z,69.24
2019-05-17T08:29:06.041Z,71.37
2019-05-17T08:30:06.048Z,72.75
2019-05-17T08:31:06.033Z,73.53
2019-05-17T08:32:06.032Z,67.38
2019-05-17T08:33:06.008Z,69.10
2019-05-17T08:34:06.000Z,69.54
2019-05-17T08:35:05.966Z,71.80
2019-05-17T08:36:06.044Z,69.34
2019-05-17T08:37:05.952Z,66.95
2019-05-17T08:38:05.957Z,65.27
2019-05-17T08:39:06.050Z,64.78
2019-05-17T08:40:05.946Z,61.77
2019-05-17T08:41:05.915Z,62.34
2019-05-17T08:42:05.956Z,64.93
2019-05-17T08:43:05.914Z,67.79
2019-05-17T08:44:05.868Z,69.03
2019-05-17T08:45:05.960Z,68.70
2019-05-17T08:46:05.856Z,70.76
2019-05-17T08:47:05.857Z,71.70
2019-05-17T08:48:05.970Z,71.91
2019-05-17T08:49:05.824Z,71.53
2019-05-17T08:50:05.812Z,72.72
2019-05-17T08:51:05.864Z,73.63
2019-05-17T08:52:05.791Z,72.11
2019-05-17T08:53:05.822Z,72.62
2019-05-17T08:54:05.838Z,75.83
2019-05-17T08:55:05.817Z,71.70
2019-05-17T08:56:05.777Z,73.13
2019-05-17T08:57:05.776Z,72.41
2019-05-17T08:58:05.851Z,73.39
2019-05-17T08:59:05.719Z,70.39
2019-05-17T09:00:05.716Z,68.66
2019-05-17T09:01:05.688Z,70.45
2019-05-17T09:02:05.695Z,70.48
2019-05-17T09:03:05.690Z,67.51
2019-05-17T09:04:05.694Z,70.25
2019-05-17T09:05:05.694Z,71.47
2019-05-17T09:06:05.653Z,69.84
2019-05-17T09:07:05.626Z,69.71
2019-05-17T09:08:05.630Z,67.99
2019-05-17T09:09:05.624Z,69.13
2019-05-17T09:10:05.604Z,69.54
2019-05-17T09:11:05.588Z,68.23
2019-05-17T09:12:05.570Z,66.83
2019-05-17T09:13:05.560Z,68.35
2019-05-17T09:14:05.595Z,69.40
2019-05-17T09:15:05.604Z,67.27
2019-05-17T09:16:05.522Z,68.59
2019-05-17T09:17:05.503Z,69.51
2019-05-17T09:18:05.579Z,68.93
2019-05-17T09:19:05.526Z,68.73
2019-05-17T09:20:05.515Z,68.23
2019-05-17T09:21:05.508Z,67.61
2019-05-17T09:22:05.474Z,66.09
2019-05-17T09:23:05.489Z,67.00
2019-05-17T09:24:05.504Z,64.85
2019-05-17T09:25:05.439Z,66.64
2019-05-17T09:26:05.481Z,67.35
2019-05-17T09:27:05.422Z,66.47
2019-05-17T09:28:05.414Z,67.00
2019-05-17T09:29:05.388Z,66.60
2019-05-17T09:30:05.380Z,68.93
2019-05-17T09:31:05.367Z,65.96
2019-05-17T09:32:05.454Z,66.67
2019-05-17T09:33:05.375Z,67.72
2019-05-17T09:34:05.341Z,66.02
2019-05-17T09:35:05.461Z,69.17
2019-05-17T09:36:05.318Z,67.85
2019-05-17T09:37:05.301Z,68.52
2019-05-17T09:38:05.376Z,66.80
2019-05-17T09:39:05.283Z,66.19
2019-05-17T09:40:05.279Z,66.94
2019-05-17T09:41:05.427Z,66.02
2019-05-17T09:42:05.259Z,67.14
2019-05-17T09:43:05.337Z,66.13
2019-05-17T09:44:13.074Z,67.03
2019-05-17T09:45:06.216Z,69.10
2019-05-17T09:46:05.216Z,66.06
2019-05-17T09:47:05.188Z,64.17
2019-05-17T09:48:05.225Z,66.40
2019-05-17T09:49:05.173Z,66.19
2019-05-17T09:50:05.167Z,66.80
2019-05-17T09:51:05.172Z,66.97
2019-05-17T09:52:05.133Z,65.18
2019-05-17T09:53:05.178Z,66.09
2019-05-17T09:54:05.158Z,65.28
2019-05-17T09:55:05.108Z,63.89
2019-05-17T09:56:05.103Z,70.62
2019-05-17T09:57:05.111Z,69.44
2019-05-17T09:58:05.088Z,65.39
2019-05-17T09:59:05.070Z,64.58
2019-05-17T10:00:05.083Z,64.61
2019-05-17T10:01:05.054Z,65.75
2019-05-17T10:02:05.020Z,67.95
2019-05-17T10:03:05.023Z,68.76
2019-05-17T10:04:05.032Z,67.00
2019-05-17T10:05:05.056Z,64.67
2019-05-17T10:06:04.987Z,65.56
2019-05-17T10:07:04.971Z,66.74
2019-05-17T10:08:05.085Z,64.44
2019-05-17T10:09:05.006Z,66.67
2019-05-17T10:10:04.991Z,64.64
2019-05-17T10:11:08.935Z,64.44
2019-05-17T10:12:05.942Z,64.11
2019-05-17T10:13:04.947Z,63.81
2019-05-17T10:14:05.050Z,62.99
2019-05-17T10:15:04.937Z,64.82
2019-05-17T10:16:04.899Z,63.12
2019-05-17T10:17:04.983Z,64.47
2019-05-17T10:18:04.865Z,65.99
2019-05-17T10:19:04.852Z,64.58
2019-05-17T10:20:04.989Z,66.60
2019-05-17T10:21:04.857Z,66.47
2019-05-17T10:22:04.812Z,65.36
2019-05-17T10:23:04.915Z,66.77
2019-05-17T10:24:04.813Z,65.93
2019-05-17T10:25:04.843Z,66.03
2019-05-17T10:26:04.785Z,65.02
2019-05-17T10:27:04.811Z,64.41
2019-05-17T10:28:04.744Z,63.12
2019-05-17T10:29:04.762Z,65.69
2019-05-17T10:30:04.738Z,67.55
2019-05-17T10:31:04.723Z,66.74
2019-05-17T10:32:04.773Z,69.17
2019-05-17T10:33:04.691Z,68.02
2019-05-17T10:34:04.718Z,64.91
2019-05-17T10:35:04.709Z,65.99
2019-05-17T10:36:04.669Z,66.94
2019-05-17T10:37:04.900Z,67.00
2019-05-17T10:38:04.675Z,68.76
2019-05-17T10:39:04.639Z,67.75
2019-05-17T10:40:04.636Z,65.72
2019-05-17T10:41:04.629Z,67.88
2019-05-17T10:42:04.673Z,70.72
2019-05-17T10:43:04.651Z,70.72
2019-05-17T10:44:04.587Z,67.41
2019-05-17T10:45:04.788Z,66.93
2019-05-17T10:46:04.574Z,67.36
2019-05-17T10:47:04.538Z,68.99
2019-05-17T10:48:04.801Z,71.23
2019-05-17T10:49:04.516Z,71.73
2019-05-17T10:50:04.522Z,68.38
2019-05-17T10:51:04.669Z,69.26
2019-05-17T10:52:04.535Z,69.57
2019-05-17T10:53:04.480Z,69.54
2019-05-17T10:54:04.636Z,67.71
2019-05-17T10:55:04.486Z,67.38
2019-05-17T10:56:04.458Z,67.17
2019-05-17T10:57:04.515Z,66.36
2019-05-17T10:58:04.480Z,67.61
2019-05-17T10:59:04.459Z,68.66
2019-05-17T11:00:04.500Z,67.81
2019-05-17T11:01:04.391Z,69.06
2019-05-17T11:02:04.377Z,69.47
2019-05-17T11:03:04.478Z,68.45
2019-05-17T11:04:04.386Z,68.62
2019-05-17T11:05:04.382Z,69.20
2019-05-17T11:06:04.440Z,71.40
2019-05-17T11:07:04.408Z,67.34
2019-05-17T11:08:04.317Z,65.65
2019-05-17T11:09:04.315Z,67.03
2019-05-17T11:10:04.394Z,66.50
2019-05-17T11:11:04.284Z,67.61
2019-05-17T11:12:04.290Z,65.79
2019-05-17T11:13:04.277Z,66.40
2019-05-17T11:14:04.296Z,67.00
2019-05-17T11:15:11.214Z,65.66
2019-05-17T11:16:05.255Z,66.09
2019-05-17T11:17:04.233Z,65.08
2019-05-17T11:18:04.226Z,66.40
2019-05-17T11:19:04.343Z,65.96
2019-05-17T11:20:04.207Z,64.88
2019-05-17T11:21:04.225Z,67.31
2019-05-17T11:22:04.363Z,65.25
2019-05-17T11:23:04.197Z,64.98
2019-05-17T11:24:04.183Z,64.81
2019-05-17T11:25:04.222Z,67.14
2019-05-17T11:26:04.134Z,65.21
2019-05-17T11:27:04.148Z,67.55
2019-05-17T11:28:04.193Z,67.85
2019-05-17T11:29:04.142Z,66.70
2019-05-17T11:30:04.092Z,68.12
2019-05-17T11:31:04.129Z,66.77
2019-05-17T11:32:04.139Z,68.19
2019-05-17T11:33:04.062Z,69.41
2019-05-17T11:34:04.028Z,65.96
2019-05-17T11:35:04.079Z,65.15
2019-05-17T11:36:04.055Z,67.18
2019-05-17T11:37:04.022Z,66.60
2019-05-17T11:38:04.000Z,66.80
2019-05-17T11:39:04.005Z,66.97
2019-05-17T11:40:03.969Z,68.73
2019-05-17T11:41:19.861Z,69.84
2019-05-17T11:42:05.004Z,70.48
2019-05-17T11:43:03.937Z,71.06
2019-05-17T11:44:03.930Z,71.09
2019-05-17T11:45:03.917Z,71.60
2019-05-17T11:46:03.918Z,71.23
2019-05-17T11:47:03.920Z,71.94
2019-05-17T11:48:03.962Z,72.04
2019-05-17T11:49:03.868Z,70.68
2019-05-17T11:50:03.887Z,69.84
2019-05-17T11:51:03.935Z,70.92
2019-05-17T11:52:03.846Z,69.10
2019-05-17T11:53:03.894Z,69.07
2019-05-17T11:54:03.872Z,69.98
2019-05-17T11:55:03.815Z,69.34
2019-05-17T11:56:03.855Z,69.44
2019-05-17T11:57:03.886Z,67.61
2019-05-17T11:58:03.816Z,67.41
2019-05-17T11:59:03.815Z,68.83
2019-05-17T12:00:03.844Z,67.79
2019-05-17T12:01:03.752Z,68.26
2019-05-17T12:02:03.755Z,69.14
2019-05-17T12:03:03.951Z,66.88
2019-05-17T12:04:03.734Z,65.33
2019-05-17T12:05:03.704Z,65.94
2019-05-17T12:06:03.751Z,65.70
2019-05-17T12:07:03.685Z,64.73
2019-05-17T12:08:03.756Z,63.70
2019-05-17T12:09:03.815Z,63.16
2019-05-17T12:10:03.664Z,61.01
2019-05-17T12:11:03.649Z,61.18
2019-05-17T12:12:03.719Z,60.17
2019-05-17T12:13:03.647Z,61.49
2019-05-17T12:14:03.630Z,60.72
2019-05-17T12:15:03.642Z,58.15
2019-05-17T12:16:03.682Z,58.35
2019-05-17T12:17:03.587Z,59.14
2019-05-17T12:18:03.606Z,59.72
2019-05-17T12:19:03.578Z,59.08
2019-05-17T12:20:03.572Z,57.68
2019-05-17T12:21:03.535Z,61.46
2019-05-17T12:22:03.528Z,63.01
2019-05-17T12:23:03.516Z,59.60
2019-05-17T12:24:03.498Z,57.41
2019-05-17T12:25:03.508Z,56.04
2019-05-17T12:26:03.521Z,57.86
2019-05-17T12:27:03.552Z,60.10
2019-05-17T12:28:03.479Z,59.62
2019-05-17T12:29:03.468Z,57.70
2019-05-17T12:30:03.479Z,57.68
2019-05-17T12:31:03.438Z,58.11
2019-05-17T12:32:03.455Z,57.78
2019-05-17T12:33:03.464Z,55.41
2019-05-17T12:34:03.573Z,56.97
2019-05-17T12:35:03.571Z,58.48
2019-05-17T12:36:03.454Z,59.84
2019-05-17T12:37:03.437Z,60.21
2019-05-17T12:38:03.365Z,63.19
2019-05-17T12:39:03.362Z,65.01
2019-05-17T12:40:03.431Z,62.38
2019-05-17T12:41:03.445Z,62.57
2019-05-17T12:42:03.392Z,65.53
2019-05-17T12:43:03.324Z,66.75
2019-05-17T12:44:03.376Z,66.38
2019-05-17T12:45:03.316Z,65.59
2019-05-17T12:46:03.303Z,68.02
2019-05-17T12:47:03.264Z,66.50
2019-05-17T12:48:03.267Z,66.03
2019-05-17T12:49:03.256Z,65.93
2019-05-17T12:50:03.235Z,69.48
2019-05-17T12:51:03.246Z,69.68
2019-05-17T12:52:03.216Z,66.24
2019-05-17T12:53:03.219Z,66.74
2019-05-17T12:54:03.201Z,67.14
2019-05-17T12:55:03.168Z,67.32
2019-05-17T12:56:03.207Z,66.81
2019-05-17T12:57:04.838Z,66.24
2019-05-17T12:58:03.141Z,65.90
2019-05-17T12:59:03.179Z,65.29
2019-05-17T13:00:03.372Z,67.69
2019-05-17T13:01:03.105Z,66.95
2019-05-17T13:02:03.145Z,65.13
2019-05-17T13:03:03.201Z,66.55
2019-05-17T13:04:03.090Z,65.43
2019-05-17T13:05:03.062Z,64.39
2019-05-17T13:06:03.205Z,64.76
2019-05-17T13:07:03.116Z,65.59
2019-05-17T13:08:03.044Z,66.33
2019-05-17T13:09:03.121Z,66.33
2019-05-17T13:10:03.037Z,67.05
2019-05-17T13:11:03.011Z,66.30
2019-05-17T13:12:03.120Z,65.29
2019-05-17T13:13:02.979Z,67.11
2019-05-17T13:14:03.052Z,67.08
2019-05-17T13:15:02.982Z,64.86
2019-05-17T13:16:16.782Z,66.27
2019-05-17T13:17:04.029Z,68.37
2019-05-17T13:18:02.953Z,66.44
2019-05-17T13:19:02.928Z,65.70
2019-05-17T13:20:03.207Z,64.22
2019-05-17T13:21:02.906Z,66.67
2019-05-17T13:22:02.958Z,66.61
2019-05-17T13:23:03.279Z,66.20
2019-05-17T13:24:03.707Z,65.83
2019-05-17T13:25:02.932Z,67.68
2019-05-17T13:26:02.899Z,67.89
2019-05-17T13:27:02.853Z,70.32
2019-05-17T13:28:02.997Z,68.49
2019-05-17T13:29:02.811Z,68.40
2019-05-17T13:30:02.863Z,67.38
2019-05-17T13:31:02.929Z,66.47
2019-05-17T13:32:02.788Z,67.92
2019-05-17T13:33:02.795Z,68.26
2019-05-17T13:34:02.850Z,69.07
2019-05-17T13:35:02.756Z,69.47
2019-05-17T13:36:02.731Z,71.47
2019-05-17T13:37:02.777Z,70.72
2019-05-17T13:38:02.709Z,67.51
2019-05-17T13:39:02.751Z,68.43
2019-05-17T13:40:02.689Z,69.03
2019-05-17T13:41:02.688Z,69.03
2019-05-17T13:42:02.691Z,69.84
2019-05-17T13:43:02.666Z,68.40
2019-05-17T13:44:02.708Z,68.26
2019-05-17T13:45:02.629Z,67.01
2019-05-17T13:46:02.637Z,65.47
2019-05-17T13:47:02.640Z,66.38
2019-05-17T13:48:02.624Z,63.96
2019-05-17T13:49:02.624Z,63.62
2019-05-17T13:50:02.600Z,60.94
2019-05-17T13:51:02.600Z,60.71
2019-05-17T13:52:02.678Z,59.97
2019-05-17T13:53:02.550Z,58.44
2019-05-17T13:54:02.580Z,59.96
2019-05-17T13:55:02.532Z,58.97
2019-05-17T13:56:02.517Z,54.55
2019-05-17T13:57:02.496Z,50.89
2019-05-17T13:58:02.515Z,50.29
2019-05-17T13:59:02.505Z,53.62
2019-05-17T14:00:02.468Z,53.14
2019-05-17T14:01:02.509Z,53.55
2019-05-17T14:02:02.467Z,57.95
2019-05-17T14:03:02.456Z,57.20
2019-05-17T14:04:02.473Z,58.56
2019-05-17T14:05:02.497Z,59.00
2019-05-17T14:06:02.417Z,60.44
2019-05-17T14:07:02.405Z,60.51
2019-05-17T14:08:02.428Z,58.82
2019-05-17T14:09:02.398Z,59.63
2019-05-17T14:10:02.577Z,60.36
2019-05-17T14:11:02.456Z,60.57
2019-05-17T14:12:02.424Z,59.89
2019-05-17T14:13:02.369Z,60.02
2019-05-17T14:14:02.424Z,60.22
2019-05-17T14:15:04.184Z,58.98
2019-05-17T14:16:02.319Z,61.60
2019-05-17T14:17:02.421Z,60.74
2019-05-17T14:18:02.287Z,59.77
2019-05-17T14:19:02.272Z,60.48
2019-05-17T14:20:02.298Z,56.49
2019-05-17T14:21:02.295Z,59.69
2019-05-17T14:22:02.267Z,55.46
2019-05-17T14:23:02.248Z,55.54
2019-05-17T14:24:02.246Z,57.12
2019-05-17T14:25:02.208Z,54.91
2019-05-17T14:26:02.221Z,58.12
2019-05-17T14:27:02.187Z,56.14
2019-05-17T14:28:02.177Z,58.98
2019-05-17T14:29:02.173Z,56.70
2019-05-17T14:30:02.193Z,57.15
2019-05-17T14:31:02.184Z,58.09
2019-05-17T14:32:02.214Z,58.72
2019-05-17T14:33:02.148Z,59.63
2019-05-17T14:34:02.129Z,61.98
2019-05-17T14:35:02.121Z,61.85
2019-05-17T14:36:02.178Z,63.67
2019-05-17T14:37:02.115Z,60.74
2019-05-17T14:38:02.060Z,59.60
2019-05-17T14:39:02.065Z,60.71
2019-05-17T14:40:02.045Z,58.80
2019-05-17T14:41:07.889Z,59.20
2019-05-17T14:42:03.075Z,59.93
2019-05-17T14:43:02.026Z,61.85
2019-05-17T14:44:02.006Z,59.73
2019-05-17T14:45:02.020Z,63.73
2019-05-17T14:46:01.978Z,59.60
2019-05-17T14:47:01.994Z,59.77
2019-05-17T14:48:02.030Z,59.07
2019-05-17T14:49:01.969Z,60.25
2019-05-17T14:50:02.053Z,58.36
2019-05-17T14:51:01.939Z,61.92
2019-05-17T14:52:01.914Z,60.51
2019-05-17T14:53:01.956Z,62.19
2019-05-17T14:54:01.896Z,60.38
2019-05-17T14:55:02.284Z,59.20
2019-05-17T14:56:01.883Z,59.73
2019-05-17T14:57:01.871Z,60.94
2019-05-17T14:58:01.886Z,61.17
2019-05-17T14:59:01.856Z,60.46
2019-05-17T15:00:01.821Z,60.89
2019-05-17T15:01:01.929Z,62.44
2019-05-17T15:02:01.822Z,62.57
2019-05-17T15:03:01.806Z,62.19
2019-05-17T15:04:01.840Z,65.13
2019-05-17T15:05:02.629Z,64.22
2019-05-17T15:06:01.776Z,62.70
2019-05-17T15:07:01.743Z,63.71
2019-05-17T15:08:01.802Z,61.79
2019-05-17T15:09:01.758Z,63.31
2019-05-17T15:10:01.719Z,63.58
2019-05-17T15:11:01.706Z,64.16
2019-05-17T15:12:01.726Z,65.95
2019-05-17T15:13:01.839Z,62.71
2019-05-17T15:14:01.664Z,63.73
2019-05-17T15:15:01.709Z,62.79
2019-05-17T15:16:01.685Z,61.37
2019-05-17T15:17:01.707Z,61.91
2019-05-17T15:18:01.642Z,62.74
2019-05-17T15:19:01.633Z,62.37
2019-05-17T15:20:01.643Z,63.21
2019-05-17T15:21:01.614Z,63.10
2019-05-17T15:22:01.620Z,63.44
2019-05-17T15:23:01.591Z,64.65
2019-05-17T15:24:01.575Z,63.54
2019-05-17T15:25:02.017Z,64.38
2019-05-17T15:26:01.550Z,63.95
2019-05-17T15:27:05.820Z,64.96
2019-05-17T15:28:01.520Z,63.75
2019-05-17T15:29:01.543Z,63.98
2019-05-17T15:30:01.535Z,65.62
2019-05-17T15:31:01.499Z,67.52
2019-05-17T15:32:01.481Z,64.79
2019-05-17T15:33:01.483Z,66.03
2019-05-17T15:34:01.463Z,65.32
2019-05-17T15:35:01.494Z,66.06
2019-05-17T15:36:01.451Z,66.16
2019-05-17T15:37:01.416Z,65.89
2019-05-17T15:38:01.456Z,66.43
2019-05-17T15:39:01.466Z,68.02
2019-05-17T15:40:01.407Z,68.23
2019-05-17T15:41:01.457Z,68.73
2019-05-17T15:42:01.430Z,66.70
2019-05-17T15:43:01.371Z,67.75
2019-05-17T15:44:01.368Z,67.65
2019-05-17T15:45:01.367Z,68.35
2019-05-17T15:46:01.379Z,68.05
2019-05-17T15:47:01.326Z,69.00
2019-05-17T15:48:01.308Z,68.39
2019-05-17T15:49:01.317Z,68.70
2019-05-17T15:50:01.298Z,69.10
2019-05-17T15:51:01.544Z,68.49
2019-05-17T15:52:01.309Z,70.01
2019-05-17T15:53:01.302Z,68.70
2019-05-17T15:54:01.246Z,68.79
2019-05-17T15:55:01.230Z,68.73
2019-05-17T15:56:01.217Z,68.93
2019-05-17T15:57:01.227Z,70.62
2019-05-17T15:58:01.343Z,68.39
2019-05-17T15:59:01.195Z,69.71
2019-05-17T16:00:01.189Z,69.51
2019-05-17T16:01:01.202Z,69.00
2019-05-17T16:02:01.189Z,69.60
2019-05-17T16:03:01.167Z,68.29
2019-05-17T16:04:01.138Z,68.90
2019-05-17T16:05:01.124Z,70.42
2019-05-17T16:06:01.120Z,69.20
2019-05-17T16:07:01.194Z,68.29
2019-05-17T16:08:01.111Z,68.96
2019-05-17T16:09:01.084Z,68.35
2019-05-17T16:10:01.069Z,67.85
2019-05-17T16:11:01.063Z,68.43
2019-05-17T16:12:01.101Z,69.95
2019-05-17T16:13:03.197Z,68.93
2019-05-17T16:14:01.032Z,67.41
2019-05-17T16:15:01.025Z,67.41
2019-05-17T16:16:01.004Z,67.72
2019-05-17T16:17:01.035Z,67.41
2019-05-17T16:18:00.988Z,68.05
2019-05-17T16:19:00.983Z,68.83
2019-05-17T16:20:00.962Z,67.51
2019-05-17T16:21:00.950Z,68.49
2019-05-17T16:22:00.992Z,67.58
2019-05-17T16:23:00.921Z,67.11
2019-05-17T16:24:00.926Z,68.02
2019-05-17T16:25:00.902Z,68.32
2019-05-17T16:26:00.919Z,69.24
2019-05-17T16:27:00.953Z,68.80
2019-05-17T16:28:00.895Z,67.38
2019-05-17T16:29:00.929Z,67.89
2019-05-17T16:30:01.791Z,67.68
2019-05-17T16:31:00.920Z,69.20
2019-05-17T16:32:00.881Z,68.19
2019-05-17T16:33:00.836Z,68.52
2019-05-17T16:34:00.818Z,68.32
2019-05-17T16:35:00.829Z,70.21
2019-05-17T16:36:00.814Z,68.80
2019-05-17T16:37:00.818Z,68.02
2019-05-17T16:38:00.767Z,69.24
2019-05-17T16:39:00.783Z,68.52
2019-05-17T16:40:00.758Z,69.03
2019-05-17T16:41:01.158Z,68.76
2019-05-17T16:42:00.736Z,68.87
2019-05-17T16:43:00.737Z,69.68
2019-05-17T16:44:00.696Z,68.66
2019-05-17T16:45:00.715Z,68.87
2019-05-17T16:46:00.678Z,68.79
2019-05-17T16:47:00.690Z,68.70
2019-05-17T16:48:00.675Z,69.71
2019-05-17T16:49:00.714Z,70.21
2019-05-17T16:50:00.635Z,70.42
2019-05-17T16:51:00.628Z,69.20
2019-05-17T16:52:00.620Z,69.30
2019-05-17T16:53:06.026Z,70.52
2019-05-17T16:54:01.611Z,69.40
2019-05-17T16:55:00.606Z,68.70
2019-05-17T16:56:00.586Z,68.79
2019-05-17T16:57:00.590Z,69.10
2019-05-17T16:58:00.572Z,68.79
2019-05-17T16:59:00.569Z,69.20
2019-05-17T17:00:00.534Z,69.30
2019-05-17T17:01:03.502Z,69.13
2019-05-17T17:02:00.515Z,69.43
2019-05-17T17:03:00.516Z,70.55
2019-05-17T17:04:00.512Z,70.04
2019-05-17T17:05:00.481Z,69.54
2019-05-17T17:06:00.474Z,70.52
2019-05-17T17:07:00.472Z,69.10
2019-05-17T17:08:00.450Z,69.40
2019-05-17T17:09:00.423Z,69.34
2019-05-17T17:10:00.439Z,69.34
2019-05-17T17:11:00.437Z,69.54
2019-05-17T17:12:00.404Z,69.95
2019-05-17T17:13:00.397Z,70.42
2019-05-17T17:14:00.394Z,69.54
2019-05-17T17:15:00.394Z,70.55
2019-05-17T17:16:00.349Z,70.04
2019-05-17T17:17:00.351Z,70.35
2019-05-17T17:18:00.545Z,70.04
2019-05-17T17:19:00.329Z,70.86
2019-05-17T17:20:00.315Z,69.64
2019-05-17T17:21:00.336Z,69.10
2019-05-17T17:22:00.301Z,70.52
2019-05-17T17:23:00.278Z,70.11
2019-05-17T17:24:00.264Z,71.23
2019-05-17T17:25:00.271Z,69.40
2019-05-17T17:26:00.261Z,69.51
2019-05-17T17:27:00.229Z,68.93
2019-05-17T17:28:00.232Z,70.35
2019-05-17T17:29:00.221Z,69.95
2019-05-17T17:30:00.210Z,69.34
2019-05-17T17:31:00.232Z,69.84
2019-05-17T17:32:00.195Z,69.34
2019-05-17T17:33:00.179Z,68.93
2019-05-17T17:34:00.160Z,69.54
2019-05-17T17:35:00.156Z,69.03
2019-05-17T17:36:00.194Z,70.45
2019-05-17T17:37:00.130Z,70.04
2019-05-17T17:38:00.137Z,70.86
2019-05-17T17:39:00.105Z,70.15
2019-05-17T17:40:00.131Z,69.37
2019-05-17T17:41:00.106Z,69.26
2019-05-17T17:42:00.117Z,70.99
2019-05-17T17:43:00.066Z,69.37
2019-05-17T17:44:00.055Z,69.57
2019-05-17T17:45:00.044Z,69.67
2019-05-17T17:46:00.058Z,69.98
2019-05-17T17:47:00.035Z,70.79
2019-05-17T17:48:00.025Z,70.28
2019-05-17T17:49:00.015Z,70.38
2019-05-17T17:49:59.985Z,70.28
2019-05-17T17:51:00.001Z,69.78
2019-05-17T17:51:59.988Z,70.28
2019-05-17T17:52:59.966Z,71.09
2019-05-17T17:53:59.974Z,69.91
2019-05-17T17:54:59.971Z,69.91
2019-05-17T17:55:59.924Z,70.42
2019-05-17T17:56:59.917Z,71.84
2019-05-17T17:57:59.921Z,70.72
2019-05-17T17:58:59.952Z,71.23
2019-05-17T17:59:59.877Z,71.43
2019-05-17T18:00:59.890Z,71.12
2019-05-17T18:01:59.885Z,71.94
2019-05-17T18:02:59.894Z,71.64
2019-05-17T18:03:59.859Z,70.75
2019-05-17T18:04:59.839Z,71.06
2019-05-17T18:05:59.822Z,71.16
2019-05-17T18:06:59.813Z,70.86
2019-05-17T18:07:59.829Z,71.06
2019-05-17T18:08:59.791Z,71.87
2019-05-17T18:09:59.766Z,73.09
2019-05-17T18:10:59.780Z,71.67
2019-05-17T18:11:59.772Z,71.91
2019-05-17T18:12:59.750Z,72.92
2019-05-17T18:14:12.413Z,73.74
2019-05-17T18:15:03.416Z,73.74
2019-05-17T18:16:00.723Z,72.72
2019-05-17T18:16:59.722Z,72.41
2019-05-17T18:17:59.708Z,74.45
2019-05-17T18:18:59.699Z,72.86
2019-05-17T18:19:59.675Z,73.36
2019-05-17T18:20:59.658Z,73.26
2019-05-17T18:21:59.653Z,73.06
2019-05-17T18:22:59.638Z,73.97
2019-05-17T18:23:59.652Z,75.30
2019-05-17T18:24:59.608Z,74.32
2019-05-17T18:25:59.679Z,73.71
2019-05-17T18:26:59.598Z,74.32
2019-05-17T18:27:59.582Z,74.41
2019-05-17T18:28:59.622Z,74.82
2019-05-17T18:29:59.575Z,75.23
2019-05-17T18:30:59.561Z,74.65
2019-05-17T18:31:59.546Z,75.16
2019-05-17T18:32:59.538Z,75.57
2019-05-17T18:33:59.553Z,77.10
2019-05-17T18:34:59.535Z,75.57
2019-05-17T18:35:59.487Z,75.27
2019-05-17T18:36:59.489Z,75.88
2019-05-17T18:37:59.481Z,75.81
2019-05-17T18:38:59.460Z,76.42
2019-05-17T18:39:59.485Z,76.53
2019-05-17T18:40:59.454Z,76.01
2019-05-17T18:41:59.450Z,76.22
2019-05-17T18:42:59.436Z,77.24
2019-05-17T18:43:59.414Z,77.03
2019-05-17T18:44:59.422Z,77.27
2019-05-17T18:45:59.386Z,76.87
2019-05-17T18:46:59.403Z,77.48
2019-05-17T18:47:59.397Z,76.56
2019-05-17T18:48:59.365Z,76.97
2019-05-17T18:49:59.346Z,76.76
2019-05-17T18:50:59.413Z,77.07
2019-05-17T18:51:59.330Z,76.66
2019-05-17T18:53:15.983Z,76.87
2019-05-17T18:54:00.335Z,76.66
2019-05-17T18:54:59.312Z,77.68
2019-05-17T18:55:59.314Z,77.58
2019-05-17T18:56:59.269Z,77.27
2019-05-17T18:57:59.266Z,76.97
2019-05-17T18:58:59.250Z,77.68
2019-05-17T18:59:59.249Z,76.76
2019-05-17T19:00:59.275Z,76.87
2019-05-17T19:01:59.222Z,76.46
2019-05-17T19:02:59.207Z,76.66
2019-05-17T19:03:59.204Z,76.05
2019-05-17T19:04:59.187Z,76.05
2019-05-17T19:05:59.161Z,76.87
2019-05-17T19:06:59.182Z,76.56
2019-05-17T19:07:59.142Z,76.46
2019-05-17T19:08:59.146Z,77.17
2019-05-17T19:09:59.131Z,76.66
2019-05-17T19:10:59.134Z,76.97
2019-05-17T19:11:59.143Z,77.17
2019-05-17T19:12:59.099Z,76.76
2019-05-17T19:13:59.080Z,77.78
2019-05-17T19:15:00.696Z,76.87
2019-05-17T19:15:59.080Z,76.66
2019-05-17T19:16:59.091Z,76.25
2019-05-17T19:17:59.067Z,75.85
2019-05-17T19:18:59.048Z,76.35
2019-05-17T19:19:59.034Z,76.25
2019-05-17T19:20:59.017Z,76.15
2019-05-17T19:21:59.036Z,75.85
2019-05-17T19:22:59.056Z,76.15
2019-05-17T19:23:58.978Z,75.85
2019-05-17T19:24:59.004Z,75.85
2019-05-17T19:25:58.974Z,76.56
2019-05-17T19:26:59.022Z,76.66
2019-05-17T19:27:58.955Z,76.05
2019-05-17T19:28:58.944Z,76.76
2019-05-17T19:29:58.915Z,76.56
2019-05-17T19:30:58.902Z,76.05
2019-05-17T19:31:58.943Z,76.56
2019-05-17T19:32:59.027Z,76.59
2019-05-17T19:33:58.864Z,77.21
2019-05-17T19:34:58.888Z,77.00
2019-05-17T19:35:58.875Z,77.41
2019-05-17T19:36:58.908Z,77.11
2019-05-17T19:37:58.875Z,77.41
2019-05-17T19:38:58.827Z,77.31
2019-05-17T19:39:58.812Z,77.41
2019-05-17T19:40:58.812Z,77.72
2019-05-17T19:41:58.784Z,78.12
2019-05-17T19:42:58.775Z,78.43
2019-05-17T19:43:58.792Z,77.21
2019-05-17T19:44:59.617Z,77.72
2019-05-17T19:45:58.752Z,78.02
2019-05-17T19:46:58.747Z,77.96
2019-05-17T19:47:58.734Z,77.75
2019-05-17T19:48:58.740Z,77.75
2019-05-17T19:49:58.794Z,78.57
2019-05-17T19:50:58.730Z,78.27
2019-05-17T19:51:58.707Z,78.16
2019-05-17T19:52:58.698Z,78.57
2019-05-17T19:53:58.725Z,78.47
2019-05-17T19:54:58.658Z,78.06
2019-05-17T19:55:58.647Z,78.47
2019-05-17T19:56:58.639Z,78.88
2019-05-17T19:57:58.628Z,78.27
2019-05-17T19:58:58.709Z,78.57
2019-05-17T19:59:58.657Z,78.50
2019-05-17T20:00:58.671Z,78.61
2019-05-17T20:01:58.694Z,78.61
2019-05-17T20:02:58.559Z,79.12
2019-05-17T20:03:58.563Z,79.02
2019-05-17T20:04:58.587Z,79.32
2019-05-17T20:05:58.527Z,79.02
2019-05-17T20:06:58.520Z,78.41
2019-05-17T20:07:58.526Z,78.50
2019-05-17T20:08:58.510Z,78.41
2019-05-17T20:09:58.501Z,77.89
2019-05-17T20:10:58.512Z,78.91
2019-05-17T20:11:58.484Z,78.20
2019-05-17T20:12:58.527Z,78.61
2019-05-17T20:13:58.445Z,78.61
2019-05-17T20:15:14.415Z,79.22
2019-05-17T20:15:59.475Z,78.85
2019-05-17T20:16:58.422Z,78.95
2019-05-17T20:17:58.408Z,79.57
2019-05-17T20:18:58.426Z,79.36
2019-05-17T20:19:58.389Z,79.25
2019-05-17T20:20:58.405Z,79.05
2019-05-17T20:21:58.361Z,79.36
2019-05-17T20:22:58.354Z,79.36
2019-05-17T20:23:58.349Z,78.64
2019-05-17T20:24:58.368Z,78.44
2019-05-17T20:25:58.351Z,79.05
2019-05-17T20:26:58.363Z,78.85
2019-05-17T20:27:58.295Z,79.05
2019-05-17T20:28:58.283Z,78.95
2019-05-17T20:29:58.367Z,79.16
2019-05-17T20:30:58.289Z,79.57
2019-05-17T20:31:58.283Z,79.66
2019-05-17T20:32:58.309Z,80.18
2019-05-17T20:33:58.277Z,79.09
2019-05-17T20:34:58.231Z,78.85
2019-05-17T20:35:58.222Z,79.91
2019-05-17T20:36:58.189Z,78.99